createdAt,value
2023-01-13T00:00:10.184Z,100189.47
2023-01-13T00:01:14.020Z,100187.66
2023-01-13T00:02:15.531Z,100191.41
2023-01-13T00:03:17.043Z,100194.97
2023-01-13T00:04:18.509Z,100180.47
2023-01-13T00:05:22.601Z,100193.09
2023-01-13T00:06:29.299Z,100176.81
2023-01-13T00:07:30.918Z,100180.31
2023-01-13T00:08:32.668Z,100190.34
2023-01-13T00:09:34.209Z,100184.94
2023-01-13T00:10:36.054Z,100185.75
2023-01-13T00:11:37.582Z,100193.06
2023-01-13T00:12:40.762Z,100192.09
2023-01-13T00:13:42.344Z,100181.28
2023-01-13T00:14:43.960Z,100197.44
2023-01-13T00:15:55.904Z,100180.19
2023-01-13T00:16:57.456Z,100193.88
2023-01-13T00:17:59.251Z,100180.25
2023-01-13T00:19:00.742Z,100194.81
2023-01-13T00:20:02.390Z,100191.13
2023-01-13T00:21:17.692Z,100195.72
2023-01-13T00:22:19.230Z,100200.19
2023-01-13T00:23:20.685Z,100201.06
2023-01-13T00:24:22.248Z,100192.81
2023-01-13T00:25:23.728Z,100194.72
2023-01-13T00:26:27.602Z,100187.56
2023-01-13T00:27:29.278Z,100185.91
2023-01-13T00:28:30.807Z,100185.09
2023-01-13T00:29:32.305Z,100184.78
2023-01-13T00:30:34.165Z,100189.28
2023-01-13T00:31:35.806Z,100191.00
2023-01-13T00:32:37.819Z,100186.56
2023-01-13T00:33:39.540Z,100190.28
2023-01-13T00:34:41.055Z,100173.03
2023-01-13T00:35:42.548Z,100183.88
2023-01-13T00:36:44.092Z,100183.88
2023-01-13T00:37:45.553Z,100172.97
2023-01-13T00:38:47.836Z,100184.56
2023-01-13T00:39:51.643Z,100180.13
2023-01-13T00:41:01.067Z,100174.88
2023-01-13T00:42:21.466Z,100179.44
2023-01-13T00:43:22.954Z,100179.44
2023-01-13T00:44:24.442Z,100177.44
2023-01-13T00:45:25.924Z,100183.84
2023-01-13T00:46:27.409Z,100185.75
2023-01-13T00:47:28.917Z,100181.38
2023-01-13T00:48:30.947Z,100178.75
2023-01-13T00:49:32.371Z,100187.56
2023-01-13T00:50:33.854Z,100173.16
2023-01-13T00:51:35.311Z,100179.50
2023-01-13T00:52:36.772Z,100171.19
2023-01-13T00:53:43.117Z,100167.66
2023-01-13T00:54:44.689Z,100176.72
2023-01-13T00:55:46.173Z,100185.69
2023-01-13T00:56:47.654Z,100181.91
2023-01-13T00:57:49.119Z,100184.53
2023-01-13T00:58:51.980Z,100182.81
2023-01-13T00:59:53.427Z,100179.13
2023-01-13T01:00:55.023Z,100185.50
2023-01-13T01:01:56.924Z,100184.53
2023-01-13T01:02:58.905Z,100181.00
2023-01-13T01:04:00.374Z,100184.53
2023-01-13T01:05:01.896Z,100185.50
2023-01-13T01:06:07.410Z,100168.31
2023-01-13T01:07:08.950Z,100179.19
2023-01-13T01:08:10.429Z,100188.31
2023-01-13T01:09:14.911Z,100179.09
2023-01-13T01:10:16.800Z,100175.56
2023-01-13T01:11:21.430Z,100186.44
2023-01-13T01:12:22.904Z,100178.06
2023-01-13T01:13:24.359Z,100189.66
2023-01-13T01:14:27.165Z,100184.16
2023-01-13T01:15:28.657Z,100189.75
2023-01-13T01:16:32.117Z,100190.66
2023-01-13T01:17:33.795Z,100186.13
2023-01-13T01:18:37.134Z,100175.09
2023-01-13T01:19:38.822Z,100189.59
2023-01-13T01:20:40.323Z,100187.91
2023-01-13T01:21:41.870Z,100182.34
2023-01-13T01:22:43.399Z,100176.97
2023-01-13T01:23:45.457Z,100183.19
2023-01-13T01:24:47.461Z,100190.56
2023-01-13T01:25:48.966Z,100174.41
2023-01-13T01:26:50.439Z,100178.13
2023-01-13T01:27:52.067Z,100182.81
2023-01-13T01:28:54.316Z,100180.81
2023-01-13T01:29:55.847Z,100185.28
2023-01-13T01:31:00.239Z,100176.34
2023-01-13T01:32:01.719Z,100179.13
2023-01-13T01:33:05.189Z,100185.50
2023-01-13T01:34:06.645Z,100173.66
2023-01-13T01:35:08.476Z,100189.13
2023-01-13T01:36:12.217Z,100176.31
2023-01-13T01:37:13.691Z,100162.56
2023-01-13T01:38:15.173Z,100175.19
2023-01-13T01:39:16.695Z,100179.78
2023-01-13T01:40:18.237Z,100178.81
2023-01-13T01:41:22.700Z,100167.88
2023-01-13T01:42:42.631Z,100165.22
2023-01-13T01:43:59.181Z,100176.00
2023-01-13T01:45:21.487Z,100177.63
2023-01-13T01:46:23.007Z,100172.38
2023-01-13T01:47:25.477Z,100166.88
2023-01-13T01:48:30.827Z,100163.31
2023-01-13T01:49:35.278Z,100163.31
2023-01-13T01:50:37.274Z,100166.94
2023-01-13T01:51:42.309Z,100173.19
2023-01-13T01:52:49.322Z,100170.38
2023-01-13T01:53:51.989Z,100158.69
2023-01-13T01:55:02.413Z,100164.94
2023-01-13T01:56:04.014Z,100157.78
2023-01-13T01:57:07.615Z,100163.88
2023-01-13T01:58:15.619Z,100159.53
2023-01-13T01:59:17.262Z,100159.59
2023-01-13T02:00:19.120Z,100148.72
2023-01-13T02:01:21.041Z,100158.28
2023-01-13T02:02:22.665Z,100152.81
2023-01-13T02:03:24.224Z,100149.19
2023-01-13T02:04:33.784Z,100155.56
2023-01-13T02:05:35.721Z,100154.81
2023-01-13T02:06:38.145Z,100151.19
2023-01-13T02:07:43.030Z,100146.47
2023-01-13T02:08:44.609Z,100152.16
2023-01-13T02:09:46.371Z,100146.56
2023-01-13T02:10:53.483Z,100164.44
2023-01-13T02:12:13.375Z,100156.09
2023-01-13T02:13:14.919Z,100155.25
2023-01-13T02:14:17.176Z,100159.97
2023-01-13T02:15:22.577Z,100153.63
2023-01-13T02:16:24.798Z,100144.84
2023-01-13T02:17:45.762Z,100149.53
2023-01-13T02:19:16.746Z,100143.13
2023-01-13T02:20:56.127Z,100152.00
2023-01-13T02:22:32.172Z,100150.56
2023-01-13T02:24:26.494Z,100153.25
2023-01-13T02:25:40.137Z,100142.47
2023-01-13T02:27:14.523Z,100149.00
2023-01-13T02:28:34.872Z,100132.47
2023-01-13T02:30:22.991Z,100136.84
2023-01-13T02:31:42.686Z,100135.88
2023-01-13T02:33:11.993Z,100135.97
2023-01-13T02:34:17.240Z,100126.31
2023-01-13T02:35:31.534Z,100134.25
2023-01-13T02:36:48.765Z,100138.03
2023-01-13T02:37:51.596Z,100139.75
2023-01-13T02:39:18.068Z,100136.22
2023-01-13T02:40:29.252Z,100133.44
2023-01-13T02:42:23.219Z,100146.19
2023-01-13T02:43:58.419Z,100136.28
2023-01-13T02:45:28.205Z,100137.91
2023-01-13T02:46:33.130Z,100134.31
2023-01-13T02:47:39.198Z,100127.16
2023-01-13T02:48:44.608Z,100134.31
2023-01-13T02:49:54.640Z,100135.16
2023-01-13T02:51:02.557Z,100140.69
2023-01-13T02:52:19.473Z,100128.06
2023-01-13T02:53:30.553Z,100127.31
2023-01-13T02:54:35.410Z,100127.97
2023-01-13T02:55:42.683Z,100131.59
2023-01-13T02:56:48.692Z,100125.41
2023-01-13T02:57:52.792Z,100132.72
2023-01-13T02:58:56.203Z,100128.22
2023-01-13T02:59:57.854Z,100128.38
2023-01-13T03:00:59.340Z,100121.94
2023-01-13T03:02:04.044Z,100122.84
2023-01-13T03:03:05.576Z,100129.28
2023-01-13T03:04:14.983Z,100124.81
2023-01-13T03:05:17.437Z,100124.13
2023-01-13T03:06:33.832Z,100133.06
2023-01-13T03:08:01.363Z,100125.09
2023-01-13T03:09:15.167Z,100127.09
2023-01-13T03:10:33.350Z,100141.66
2023-01-13T03:11:47.499Z,100141.06
2023-01-13T03:13:24.421Z,100133.56
2023-01-13T03:14:56.843Z,100137.00
2023-01-13T03:16:24.007Z,100126.16
2023-01-13T03:17:44.049Z,100132.59
2023-01-13T03:18:45.318Z,100131.56
2023-01-13T03:20:12.356Z,100141.78
2023-01-13T03:21:39.799Z,100120.91
2023-01-13T03:23:03.164Z,100120.06
2023-01-13T03:24:12.787Z,100117.44
2023-01-13T03:25:31.181Z,100107.66
2023-01-13T03:26:43.923Z,100112.97
2023-01-13T03:27:57.888Z,100120.72
2023-01-13T03:29:08.405Z,100124.19
2023-01-13T03:30:19.319Z,100125.91
2023-01-13T03:31:30.143Z,100118.00
2023-01-13T03:32:38.993Z,100123.03
2023-01-13T03:33:57.434Z,100113.97
2023-01-13T03:35:11.251Z,100120.38
2023-01-13T03:36:16.668Z,100114.97
2023-01-13T03:37:23.239Z,100110.38
2023-01-13T03:38:36.941Z,100114.06
2023-01-13T03:39:43.246Z,100118.66
2023-01-13T03:40:54.646Z,100123.38
2023-01-13T03:42:02.240Z,100119.81
2023-01-13T03:43:29.160Z,100112.66
2023-01-13T03:44:35.872Z,100113.66
2023-01-13T03:45:39.841Z,100116.13
2023-01-13T03:46:48.053Z,100118.00
2023-01-13T03:47:54.925Z,100120.00
2023-01-13T03:48:58.764Z,100119.09
2023-01-13T03:50:18.713Z,100117.00
2023-01-13T03:51:24.532Z,100119.06
2023-01-13T03:52:33.736Z,100120.97
2023-01-13T03:53:40.667Z,100111.97
2023-01-13T03:54:48.259Z,100121.97
2023-01-13T03:55:59.208Z,100119.09
2023-01-13T03:57:06.967Z,100120.91
2023-01-13T03:58:17.028Z,100125.50
2023-01-13T03:59:25.742Z,100124.59
2023-01-13T04:00:32.360Z,100113.97
2023-01-13T04:01:53.001Z,100122.88
2023-01-13T04:03:09.479Z,100118.50
2023-01-13T04:04:21.582Z,100111.84
2023-01-13T04:05:23.576Z,100106.50
2023-01-13T04:06:27.886Z,100111.97
2023-01-13T04:07:47.662Z,100116.59
2023-01-13T04:08:55.782Z,100118.47
2023-01-13T04:10:02.133Z,100101.16
2023-01-13T04:11:08.133Z,100109.25
2023-01-13T04:12:26.452Z,100104.81
2023-01-13T04:13:32.301Z,100097.38
2023-01-13T04:14:35.565Z,100101.88
2023-01-13T04:15:42.648Z,100111.78
2023-01-13T04:16:44.244Z,100103.75
2023-01-13T04:17:45.687Z,100103.81
2023-01-13T04:18:49.982Z,100105.56
2023-01-13T04:19:51.393Z,100113.66
2023-01-13T04:20:56.079Z,100115.59
2023-01-13T04:21:57.554Z,100113.63
2023-01-13T04:22:59.068Z,100118.22
2023-01-13T04:24:00.527Z,100123.66
2023-01-13T04:25:02.175Z,100114.81
2023-01-13T04:26:03.624Z,100107.47
2023-01-13T04:27:06.115Z,100105.81
2023-01-13T04:28:07.860Z,100109.47
2023-01-13T04:29:09.334Z,100107.78
2023-01-13T04:30:11.299Z,100114.13
2023-01-13T04:31:12.833Z,100115.75
2023-01-13T04:32:14.287Z,100113.88
2023-01-13T04:33:18.270Z,100117.25
2023-01-13T04:34:19.760Z,100106.72
2023-01-13T04:35:21.232Z,100117.50
2023-01-13T04:36:27.397Z,100126.66
2023-01-13T04:37:28.858Z,100120.63
2023-01-13T04:38:30.233Z,100112.69
2023-01-13T04:39:31.742Z,100117.38
2023-01-13T04:40:33.183Z,100120.22
2023-01-13T04:41:53.286Z,100122.56
2023-01-13T04:42:54.772Z,100130.25
2023-01-13T04:43:56.212Z,100123.09
2023-01-13T04:44:57.634Z,100117.34
2023-01-13T04:45:59.104Z,100116.59
2023-01-13T04:47:02.322Z,100128.44
2023-01-13T04:48:03.964Z,100123.78
2023-01-13T04:49:05.404Z,100119.31
2023-01-13T04:50:07.209Z,100124.69
2023-01-13T04:51:08.629Z,100128.28
2023-01-13T04:52:10.044Z,100131.84
2023-01-13T04:53:11.632Z,100130.25
2023-01-13T04:54:13.183Z,100137.47
2023-01-13T04:55:16.000Z,100135.59
2023-01-13T04:56:17.735Z,100132.00
2023-01-13T04:57:19.180Z,100135.59
2023-01-13T04:58:21.033Z,100140.06
2023-01-13T04:59:22.433Z,100144.50
2023-01-13T05:00:23.905Z,100135.53
2023-01-13T05:01:25.488Z,100131.97
2023-01-13T05:02:26.956Z,100132.91
2023-01-13T05:03:28.360Z,100131.75
2023-01-13T05:04:29.847Z,100141.78
2023-01-13T05:05:31.525Z,100133.69
2023-01-13T05:06:33.319Z,100135.47
2023-01-13T05:07:34.793Z,100139.16
2023-01-13T05:08:36.241Z,100133.69
2023-01-13T05:09:37.708Z,100131.00
2023-01-13T05:10:39.239Z,100131.56
2023-01-13T05:11:59.059Z,100137.84
2023-01-13T05:13:18.922Z,100136.84
2023-01-13T05:14:38.738Z,100131.53
2023-01-13T05:16:00.580Z,100139.75
2023-01-13T05:17:03.127Z,100139.66
2023-01-13T05:18:05.126Z,100130.69
2023-01-13T05:19:06.482Z,100137.91
2023-01-13T05:20:09.232Z,100131.44
2023-01-13T05:21:30.587Z,100122.63
2023-01-13T05:22:50.609Z,100141.63
2023-01-13T05:24:10.405Z,100135.06
2023-01-13T05:25:28.109Z,100125.31
2023-01-13T05:26:29.511Z,100141.63
2023-01-13T05:27:31.647Z,100137.03
2023-01-13T05:28:33.878Z,100134.16
2023-01-13T05:29:35.293Z,100139.66
2023-01-13T05:30:42.218Z,100131.34
2023-01-13T05:31:43.652Z,100127.78
2023-01-13T05:32:45.077Z,100127.72
2023-01-13T05:33:46.517Z,100122.44
2023-01-13T05:34:48.040Z,100140.56
2023-01-13T05:35:49.699Z,100138.72
2023-01-13T05:36:51.127Z,100134.25
2023-01-13T05:37:54.811Z,100136.84
2023-01-13T05:38:56.227Z,100140.63
2023-01-13T05:40:16.232Z,100137.78
2023-01-13T05:41:35.951Z,100136.59
2023-01-13T05:42:56.717Z,100149.34
2023-01-13T05:43:58.023Z,100139.44
2023-01-13T05:44:59.407Z,100138.50
2023-01-13T05:46:09.129Z,100145.75
2023-01-13T05:47:10.653Z,100135.63
2023-01-13T05:48:12.429Z,100138.13
2023-01-13T05:49:13.827Z,100133.69
2023-01-13T05:50:15.742Z,100133.66
2023-01-13T05:51:17.144Z,100135.06
2023-01-13T05:52:18.568Z,100139.69
2023-01-13T05:53:21.379Z,100141.56
2023-01-13T05:54:22.766Z,100135.31
2023-01-13T05:55:24.192Z,100138.03
2023-01-13T05:56:25.645Z,100147.16
2023-01-13T05:57:27.158Z,100133.81
2023-01-13T05:58:28.634Z,100147.28
2023-01-13T05:59:30.069Z,100141.06
2023-01-13T06:00:31.536Z,100141.84
2023-01-13T06:01:33.282Z,100140.75
2023-01-13T06:02:34.801Z,100132.72
2023-01-13T06:03:36.896Z,100135.53
2023-01-13T06:04:38.368Z,100136.25
2023-01-13T06:05:40.029Z,100148.16
2023-01-13T06:06:43.404Z,100145.41
2023-01-13T06:07:44.832Z,100152.56
2023-01-13T06:08:46.264Z,100143.50
2023-01-13T06:09:47.675Z,100135.06
2023-01-13T06:10:49.097Z,100145.13
2023-01-13T06:11:50.539Z,100135.13
2023-01-13T06:12:52.654Z,100145.38
2023-01-13T06:13:54.125Z,100131.50
2023-01-13T06:14:55.554Z,100131.59
2023-01-13T06:16:00.145Z,100144.38
2023-01-13T06:17:01.588Z,100130.88
2023-01-13T06:18:04.572Z,100142.75
2023-01-13T06:19:12.821Z,100139.31
2023-01-13T06:20:15.884Z,100143.78
2023-01-13T06:21:17.378Z,100147.28
2023-01-13T06:22:24.065Z,100147.53
2023-01-13T06:23:26.180Z,100151.75
2023-01-13T06:24:28.426Z,100157.63
2023-01-13T06:26:05.400Z,100167.31
2023-01-13T06:27:08.440Z,100168.03
2023-01-13T06:28:10.601Z,100160.63
2023-01-13T06:29:14.955Z,100159.78
2023-01-13T06:30:17.417Z,100162.34
2023-01-13T06:31:19.935Z,100164.28
2023-01-13T06:32:28.905Z,100170.78
2023-01-13T06:33:36.705Z,100166.34
2023-01-13T06:34:40.059Z,100153.59
2023-01-13T06:35:46.326Z,100168.03
2023-01-13T06:36:53.636Z,100158.00
2023-01-13T06:37:57.808Z,100161.16
2023-01-13T06:39:02.663Z,100164.69
2023-01-13T06:40:06.565Z,100160.31
2023-01-13T06:41:08.869Z,100163.91
2023-01-13T06:42:28.659Z,100172.00
2023-01-13T06:43:30.066Z,100164.06
2023-01-13T06:44:31.503Z,100167.75
2023-01-13T06:45:33.199Z,100160.59
2023-01-13T06:46:35.602Z,100168.75
2023-01-13T06:47:37.211Z,100162.31
2023-01-13T06:48:38.670Z,100159.28
2023-01-13T06:49:40.099Z,100140.56
2023-01-13T06:50:42.270Z,100125.00
2023-01-13T06:51:43.891Z,100138.91
2023-01-13T06:52:45.368Z,100141.63
2023-01-13T06:53:46.745Z,100136.28
2023-01-13T06:54:48.157Z,100153.50
2023-01-13T06:55:49.595Z,100143.47
2023-01-13T06:56:51.055Z,100154.47
2023-01-13T06:57:55.095Z,100154.34
2023-01-13T06:58:56.563Z,100148.84
2023-01-13T06:59:57.965Z,100155.91
2023-01-13T07:01:01.109Z,100150.47
2023-01-13T07:02:03.256Z,100157.28
2023-01-13T07:03:08.931Z,100158.28
2023-01-13T07:04:10.363Z,100161.72
2023-01-13T07:05:12.031Z,100168.34
2023-01-13T07:06:13.485Z,100158.16
2023-01-13T07:07:14.936Z,100138.25
2023-01-13T07:08:16.422Z,100137.22
2023-01-13T07:09:17.910Z,100142.59
2023-01-13T07:10:22.317Z,100151.66
2023-01-13T07:11:24.886Z,100153.63
2023-01-13T07:12:26.317Z,100158.19
2023-01-13T07:13:46.298Z,100164.78
2023-01-13T07:15:06.124Z,100167.31
2023-01-13T07:16:09.120Z,100158.63
2023-01-13T07:17:10.642Z,100155.53
2023-01-13T07:18:12.067Z,100155.69
2023-01-13T07:19:13.564Z,100145.00
2023-01-13T07:20:16.735Z,100146.56
2023-01-13T07:21:19.933Z,100147.63
2023-01-13T07:22:21.413Z,100149.44
2023-01-13T07:23:23.432Z,100159.34
2023-01-13T07:24:24.938Z,100159.53
2023-01-13T07:25:26.416Z,100148.78
2023-01-13T07:26:27.873Z,100139.69
2023-01-13T07:27:29.333Z,100146.13
2023-01-13T07:28:31.556Z,100148.06
2023-01-13T07:29:32.956Z,100141.72
2023-01-13T07:30:34.379Z,100149.72
2023-01-13T07:31:36.488Z,100133.66
2023-01-13T07:32:38.043Z,100129.88
2023-01-13T07:33:39.702Z,100122.63
2023-01-13T07:34:41.269Z,100121.53
2023-01-13T07:35:42.683Z,100127.88
2023-01-13T07:36:44.118Z,100130.69
2023-01-13T07:37:45.615Z,100136.19
2023-01-13T07:38:47.042Z,100147.91
2023-01-13T07:39:50.142Z,100157.94
2023-01-13T07:40:51.625Z,100154.41
2023-01-13T07:42:11.580Z,100156.22
2023-01-13T07:43:42.059Z,100154.25
2023-01-13T07:44:43.511Z,100148.06
2023-01-13T07:45:44.947Z,100150.88
2023-01-13T07:46:46.449Z,100156.38
2023-01-13T07:47:51.302Z,100170.22
2023-01-13T07:48:52.735Z,100175.88
2023-01-13T07:49:54.137Z,100165.16
2023-01-13T07:50:55.766Z,100175.16
2023-01-13T07:51:57.535Z,100172.34
2023-01-13T07:52:59.241Z,100176.13
2023-01-13T07:54:00.719Z,100168.13
2023-01-13T07:55:02.191Z,100173.56
2023-01-13T07:56:05.880Z,100169.09
2023-01-13T07:57:07.517Z,100165.25
2023-01-13T07:58:10.000Z,100163.44
2023-01-13T07:59:11.555Z,100170.69
2023-01-13T08:00:13.387Z,100174.22
2023-01-13T08:01:16.654Z,100174.22
2023-01-13T08:02:18.341Z,100178.75
2023-01-13T08:03:20.475Z,100189.69
2023-01-13T08:04:22.110Z,100186.06
2023-01-13T08:05:23.517Z,100189.72
2023-01-13T08:06:26.191Z,100200.56
2023-01-13T08:07:27.632Z,100211.19
2023-01-13T08:08:29.087Z,100215.94
2023-01-13T08:09:30.533Z,100219.44
2023-01-13T08:10:32.021Z,100208.88
2023-01-13T08:11:33.441Z,100215.22
2023-01-13T08:12:56.967Z,100215.34
2023-01-13T08:13:58.801Z,100216.22
2023-01-13T08:15:00.242Z,100208.19
2023-01-13T08:16:07.355Z,100227.94
2023-01-13T08:17:09.760Z,100208.00
2023-01-13T08:18:11.874Z,100209.75
2023-01-13T08:19:13.363Z,100208.94
2023-01-13T08:20:15.012Z,100209.06
2023-01-13T08:21:16.766Z,100219.88
2023-01-13T08:22:18.222Z,100213.38
2023-01-13T08:23:21.483Z,100222.50
2023-01-13T08:24:25.827Z,100213.44
2023-01-13T08:25:28.917Z,100217.00
2023-01-13T08:26:30.371Z,100233.31
2023-01-13T08:27:31.882Z,100245.06
2023-01-13T08:28:33.522Z,100252.38
2023-01-13T08:29:34.953Z,100245.97
2023-01-13T08:30:36.660Z,100238.66
2023-01-13T08:31:38.076Z,100236.63
2023-01-13T08:32:39.487Z,100230.34
2023-01-13T08:33:41.677Z,100227.59
2023-01-13T08:34:43.107Z,100225.69
2023-01-13T08:35:44.515Z,100221.94
2023-01-13T08:36:45.944Z,100218.19
2023-01-13T08:37:48.298Z,100215.34
2023-01-13T08:38:49.738Z,100204.47
2023-01-13T08:39:51.149Z,100199.88
2023-01-13T08:40:52.928Z,100210.50
2023-01-13T08:41:58.348Z,100210.59
2023-01-13T08:43:00.730Z,100200.47
2023-01-13T08:44:02.169Z,100200.56
2023-01-13T08:45:04.533Z,100198.94
2023-01-13T08:46:06.244Z,100216.03
2023-01-13T08:47:07.701Z,100210.59
2023-01-13T08:48:09.176Z,100208.78
2023-01-13T08:49:10.751Z,100223.94
2023-01-13T08:50:12.489Z,100224.91
2023-01-13T08:51:14.046Z,100224.06
2023-01-13T08:52:16.150Z,100235.81
2023-01-13T08:53:17.583Z,100241.22
2023-01-13T08:54:19.449Z,100243.97
2023-01-13T08:55:21.009Z,100251.28
2023-01-13T08:56:22.485Z,100241.31
2023-01-13T08:57:24.127Z,100238.59
2023-01-13T08:58:25.777Z,100242.06
2023-01-13T08:59:27.235Z,100243.09
2023-01-13T09:00:31.027Z,100246.69
2023-01-13T09:01:33.899Z,100252.94
2023-01-13T09:02:35.674Z,100251.25
2023-01-13T09:03:37.179Z,100250.44
2023-01-13T09:04:39.041Z,100250.50
2023-01-13T09:05:40.589Z,100253.31
2023-01-13T09:06:42.158Z,100247.88
2023-01-13T09:07:43.602Z,100238.97
2023-01-13T09:08:45.551Z,100224.53
2023-01-13T09:09:47.031Z,100211.88
2023-01-13T09:10:48.496Z,100186.72
2023-01-13T09:12:09.841Z,100159.56
2023-01-13T09:13:13.888Z,100140.56
2023-01-13T09:14:20.993Z,100131.69
2023-01-13T09:15:22.468Z,100143.44
2023-01-13T09:16:23.895Z,100157.13
2023-01-13T09:17:25.367Z,100156.28
2023-01-13T09:18:26.773Z,100150.84
2023-01-13T09:19:29.153Z,100144.50
2023-01-13T09:20:30.607Z,100143.69
2023-01-13T09:21:32.040Z,100151.00
2023-01-13T09:22:36.260Z,100187.13
2023-01-13T09:23:37.667Z,100197.97
2023-01-13T09:24:39.206Z,100211.56
2023-01-13T09:25:40.697Z,100211.44
2023-01-13T09:26:42.124Z,100214.97
2023-01-13T09:27:43.555Z,100224.16
2023-01-13T09:28:44.965Z,100216.72
2023-01-13T09:29:46.443Z,100212.94
2023-01-13T09:30:47.893Z,100217.53
2023-01-13T09:31:49.344Z,100213.06
2023-01-13T09:33:10.706Z,100228.38
2023-01-13T09:34:37.015Z,100223.72
2023-01-13T09:35:38.449Z,100215.72
2023-01-13T09:36:39.874Z,100210.28
2023-01-13T09:37:41.636Z,100211.19
2023-01-13T09:38:43.079Z,100214.88
2023-01-13T09:39:44.515Z,100208.53
2023-01-13T09:40:48.942Z,100191.59
2023-01-13T09:42:12.941Z,100197.09
2023-01-13T09:43:55.552Z,100199.97
2023-01-13T09:45:04.845Z,100198.13
2023-01-13T09:46:46.935Z,100191.88
2023-01-13T09:48:01.767Z,100206.50
2023-01-13T09:49:04.295Z,100212.84
2023-01-13T09:50:34.169Z,100227.41
2023-01-13T09:51:41.534Z,100231.94
2023-01-13T09:52:43.357Z,100223.69
2023-01-13T09:54:00.562Z,100224.66
2023-01-13T09:55:14.257Z,100228.44
2023-01-13T09:56:15.667Z,100226.78
2023-01-13T09:57:19.263Z,100224.25
2023-01-13T09:58:21.061Z,100240.53
2023-01-13T09:59:32.556Z,100237.88
2023-01-13T10:00:44.833Z,100246.16
2023-01-13T10:02:11.758Z,100238.09
2023-01-13T10:03:19.584Z,100247.00
2023-01-13T10:04:21.249Z,100249.75
2023-01-13T10:05:34.594Z,100249.72
2023-01-13T10:06:42.138Z,100255.91
2023-01-13T10:07:50.449Z,100253.31
2023-01-13T10:08:51.910Z,100245.31
2023-01-13T10:09:55.497Z,100251.66
2023-01-13T10:11:33.024Z,100250.03
2023-01-13T10:12:53.146Z,100248.22
2023-01-13T10:14:00.900Z,100244.66
2023-01-13T10:15:02.493Z,100248.22
2023-01-13T10:16:30.979Z,100251.00
2023-01-13T10:17:40.013Z,100234.91
2023-01-13T10:19:03.504Z,100251.84
2023-01-13T10:20:24.750Z,100251.97
2023-01-13T10:21:31.931Z,100254.63
2023-01-13T10:22:47.114Z,100247.25
2023-01-13T10:23:48.543Z,100232.84
2023-01-13T10:25:28.250Z,100248.81
2023-01-13T10:26:52.705Z,100242.22
2023-01-13T10:28:01.488Z,100227.94
2023-01-13T10:29:03.151Z,100226.19
2023-01-13T10:30:35.836Z,100237.69
2023-01-13T10:31:37.432Z,100240.47
2023-01-13T10:32:42.827Z,100233.16
2023-01-13T10:33:44.289Z,100242.97
2023-01-13T10:34:51.411Z,100236.53
2023-01-13T10:36:02.087Z,100237.34
2023-01-13T10:37:09.144Z,100232.81
2023-01-13T10:38:20.368Z,100230.78
2023-01-13T10:39:21.872Z,100240.75
2023-01-13T10:40:23.401Z,100238.03
2023-01-13T10:41:27.479Z,100232.47
2023-01-13T10:42:29.127Z,100231.63
2023-01-13T10:43:31.251Z,100240.59
2023-01-13T10:44:46.592Z,100239.63
2023-01-13T10:46:12.028Z,100240.47
2023-01-13T10:47:27.187Z,100240.41
2023-01-13T10:48:55.965Z,100233.97
2023-01-13T10:50:12.183Z,100236.56
2023-01-13T10:51:24.869Z,100225.69
2023-01-13T10:52:33.342Z,100230.25
2023-01-13T10:53:45.648Z,100223.88
2023-01-13T10:54:52.510Z,100218.56
2023-01-13T10:56:03.621Z,100229.28
2023-01-13T10:57:23.977Z,100229.31
2023-01-13T10:58:25.832Z,100226.66
2023-01-13T10:59:27.408Z,100232.94
2023-01-13T11:00:34.863Z,100227.50
2023-01-13T11:01:37.000Z,100223.78
2023-01-13T11:02:38.689Z,100222.81
2023-01-13T11:03:42.935Z,100222.66
2023-01-13T11:04:57.884Z,100212.69
2023-01-13T11:06:00.702Z,100222.44
2023-01-13T11:07:04.814Z,100226.94
2023-01-13T11:08:18.302Z,100216.06
2023-01-13T11:09:20.944Z,100231.34
2023-01-13T11:10:27.294Z,100230.25
2023-01-13T11:11:43.206Z,100237.47
2023-01-13T11:13:16.612Z,100233.72
2023-01-13T11:14:41.681Z,100232.81
2023-01-13T11:15:58.315Z,100233.59
2023-01-13T11:17:18.081Z,100238.03
2023-01-13T11:18:43.526Z,100231.84
2023-01-13T11:19:52.266Z,100233.72
2023-01-13T11:20:57.104Z,100240.25
2023-01-13T11:22:07.346Z,100234.81
2023-01-13T11:23:27.221Z,100237.59
2023-01-13T11:24:31.451Z,100232.25
2023-01-13T11:25:43.063Z,100233.25
2023-01-13T11:26:51.363Z,100234.97
2023-01-13T11:28:00.691Z,100234.81
2023-01-13T11:29:41.231Z,100229.31
2023-01-13T11:30:45.417Z,100231.16
2023-01-13T11:31:52.105Z,100233.00
2023-01-13T11:33:15.169Z,100231.34
2023-01-13T11:34:25.821Z,100230.34
2023-01-13T11:35:29.580Z,100234.06
2023-01-13T11:36:40.182Z,100229.66
2023-01-13T11:37:49.374Z,100234.94
2023-01-13T11:38:52.965Z,100227.63
2023-01-13T11:40:15.959Z,100228.38
2023-01-13T11:41:20.416Z,100238.34
2023-01-13T11:42:46.680Z,100232.09
2023-01-13T11:43:52.056Z,100230.34
2023-01-13T11:45:06.110Z,100236.69
2023-01-13T11:46:09.764Z,100242.19
2023-01-13T11:47:12.717Z,100245.69
2023-01-13T11:48:17.456Z,100233.91
2023-01-13T11:49:32.668Z,100233.97
2023-01-13T11:50:48.056Z,100241.31
2023-01-13T11:52:00.554Z,100239.34
2023-01-13T11:53:10.396Z,100230.38
2023-01-13T11:54:26.332Z,100241.97
2023-01-13T11:55:34.923Z,100237.44
2023-01-13T11:57:02.048Z,100241.13
2023-01-13T11:58:25.155Z,100228.47
2023-01-13T11:59:55.676Z,100252.00
2023-01-13T12:01:25.355Z,100214.78
2023-01-13T12:02:51.554Z,100240.97
2023-01-13T12:04:08.236Z,100241.97
2023-01-13T12:05:31.636Z,100249.31
2023-01-13T12:06:39.955Z,100242.91
2023-01-13T12:08:20.712Z,100249.19
2023-01-13T12:09:33.294Z,100244.63
2023-01-13T12:11:05.295Z,100252.69
2023-01-13T12:12:27.335Z,100242.63
2023-01-13T12:13:53.474Z,100251.53
2023-01-13T12:15:04.086Z,100240.81
2023-01-13T12:16:30.535Z,100236.31
2023-01-13T12:18:06.515Z,100238.09
2023-01-13T12:19:20.041Z,100244.34
2023-01-13T12:20:49.701Z,100246.34
2023-01-13T12:22:14.869Z,100236.22
2023-01-13T12:23:32.324Z,100243.47
2023-01-13T12:24:58.946Z,100231.75
2023-01-13T12:26:07.789Z,100231.69
2023-01-13T12:27:32.031Z,100238.09
2023-01-13T12:29:12.447Z,100245.34
2023-01-13T12:30:27.516Z,100253.50
2023-01-13T12:31:30.605Z,100262.59
2023-01-13T12:32:38.577Z,100261.66
2023-01-13T12:33:52.249Z,100247.19
2023-01-13T12:35:05.676Z,100258.81
2023-01-13T12:36:35.195Z,100254.25
2023-01-13T12:37:45.533Z,100257.97
2023-01-13T12:38:56.981Z,100259.75
2023-01-13T12:40:15.746Z,100255.31
2023-01-13T12:41:20.182Z,100253.25
2023-01-13T12:43:04.909Z,100244.50
2023-01-13T12:44:17.008Z,100252.50
2023-01-13T12:45:23.111Z,100258.63
2023-01-13T12:46:24.577Z,100246.97
2023-01-13T12:47:52.859Z,100252.31
2023-01-13T12:48:55.289Z,100260.66